Terminal Aerodrome Forecast
Issued by NWS Duluth, MN

Home | Current Version | Previous Version | Text Only | Print | Product List | Glossary On
Versions: 1 2 3 4 5 6 7 8 9 10 11 12 13 14 15
000
FTUS43 KDLH 201120
TAFINL
TAF
KINL 201120Z 2012/2112 16004KT P6SM FEW250
     FM201900 17012G18KT P6SM FEW250
     FM210300 17011KT P6SM SCT250 WS020/19040KT
     FM210900 17008G16KT P6SM -SHRA BKN050=

USA.gov is the U.S. government's official web portal to all federal, state and local government web resources and services.